sensor_id;sensor_type;location;lat;lon;timestamp;P1;durP1;ratioP1;P2;durP2;ratioP2
66521;SDS011;53349;53.538;8.584;2022-12-18T00:00:43;58.47;;;15.85;;
66521;SDS011;53349;53.538;8.584;2022-12-18T00:03:09;56.10;;;14.80;;
66521;SDS011;53349;53.538;8.584;2022-12-18T00:05:35;54.30;;;14.40;;
66521;SDS011;53349;53.538;8.584;2022-12-18T00:08:00;60.17;;;16.15;;
66521;SDS011;53349;53.538;8.584;2022-12-18T00:10:26;57.20;;;15.03;;
66521;SDS011;53349;53.538;8.584;2022-12-18T00:12:53;56.67;;;15.93;;
66521;SDS011;53349;53.538;8.584;2022-12-18T00:15:18;50.27;;;13.87;;
66521;SDS011;53349;53.538;8.584;2022-12-18T00:17:44;53.40;;;14.30;;
66521;SDS011;53349;53.538;8.584;2022-12-18T00:20:09;58.83;;;15.33;;
66521;SDS011;53349;53.538;8.584;2022-12-18T00:22:35;55.57;;;14.90;;
66521;SDS011;53349;53.538;8.584;2022-12-18T00:25:00;55.25;;;15.02;;
66521;SDS011;53349;53.538;8.584;2022-12-18T00:27:26;51.55;;;15.63;;
66521;SDS011;53349;53.538;8.584;2022-12-18T00:29:51;56.77;;;16.00;;
66521;SDS011;53349;53.538;8.584;2022-12-18T00:32:17;64.07;;;14.10;;
66521;SDS011;53349;53.538;8.584;2022-12-18T00:34:42;60.67;;;15.05;;
66521;SDS011;53349;53.538;8.584;2022-12-18T00:37:08;56.05;;;14.60;;
66521;SDS011;53349;53.538;8.584;2022-12-18T00:39:33;63.33;;;17.03;;
66521;SDS011;53349;53.538;8.584;2022-12-18T00:41:58;67.47;;;17.83;;
66521;SDS011;53349;53.538;8.584;2022-12-18T00:44:42;57.38;;;15.00;;
66521;SDS011;53349;53.538;8.584;2022-12-18T00:47:08;54.73;;;15.67;;
66521;SDS011;53349;53.538;8.584;2022-12-18T00:49:33;50.33;;;14.47;;
66521;SDS011;53349;53.538;8.584;2022-12-18T00:51:59;58.00;;;15.07;;
66521;SDS011;53349;53.538;8.584;2022-12-18T00:54:24;57.83;;;14.88;;
66521;SDS011;53349;53.538;8.584;2022-12-18T00:56:50;52.77;;;16.07;;
66521;SDS011;53349;53.538;8.584;2022-12-18T00:59:16;55.13;;;15.07;;
66521;SDS011;53349;53.538;8.584;2022-12-18T01:01:42;62.38;;;16.13;;
66521;SDS011;53349;53.538;8.584;2022-12-18T01:04:08;65.30;;;15.70;;
66521;SDS011;53349;53.538;8.584;2022-12-18T01:06:34;63.03;;;16.33;;
66521;SDS011;53349;53.538;8.584;2022-12-18T01:08:59;54.95;;;14.95;;
66521;SDS011;53349;53.538;8.584;2022-12-18T01:11:25;52.80;;;15.63;;
66521;SDS011;53349;53.538;8.584;2022-12-18T01:13:52;50.33;;;14.37;;
66521;SDS011;53349;53.538;8.584;2022-12-18T01:16:19;52.33;;;15.27;;
66521;SDS011;53349;53.538;8.584;2022-12-18T01:18:45;56.53;;;15.98;;
66521;SDS011;53349;53.538;8.584;2022-12-18T01:21:11;58.27;;;15.87;;
66521;SDS011;53349;53.538;8.584;2022-12-18T01:23:38;52.28;;;14.63;;
66521;SDS011;53349;53.538;8.584;2022-12-18T01:26:05;56.55;;;14.73;;
66521;SDS011;53349;53.538;8.584;2022-12-18T01:28:35;47.97;;;13.77;;
66521;SDS011;53349;53.538;8.584;2022-12-18T01:31:35;51.30;;;16.58;;
66521;SDS011;53349;53.538;8.584;2022-12-18T01:33:57;54.05;;;13.82;;
66521;SDS011;53349;53.538;8.584;2022-12-18T01:36:29;59.92;;;15.45;;
66521;SDS011;53349;53.538;8.584;2022-12-18T01:38:58;63.92;;;16.92;;
66521;SDS011;53349;53.538;8.584;2022-12-18T01:41:27;54.30;;;14.07;;
66521;SDS011;53349;53.538;8.584;2022-12-18T01:49:52;61.33;;;15.32;;
66521;SDS011;53349;53.538;8.584;2022-12-18T01:52:20;56.83;;;15.75;;
66521;SDS011;53349;53.538;8.584;2022-12-18T01:54:46;58.53;;;14.70;;
66521;SDS011;53349;53.538;8.584;2022-12-18T01:57:13;51.13;;;14.38;;
66521;SDS011;53349;53.538;8.584;2022-12-18T01:59:39;53.40;;;15.20;;
66521;SDS011;53349;53.538;8.584;2022-12-18T02:02:07;51.00;;;12.70;;
66521;SDS011;53349;53.538;8.584;2022-12-18T02:04:33;51.28;;;13.73;;
66521;SDS011;53349;53.538;8.584;2022-12-18T02:09:45;42.75;;;13.65;;
66521;SDS011;53349;53.538;8.584;2022-12-18T02:12:17;36.90;;;12.88;;
66521;SDS011;53349;53.538;8.584;2022-12-18T02:17:18;38.53;;;12.10;;
66521;SDS011;53349;53.538;8.584;2022-12-18T02:19:59;46.28;;;12.93;;
66521;SDS011;53349;53.538;8.584;2022-12-18T02:25:35;37.67;;;12.77;;
66521;SDS011;53349;53.538;8.584;2022-12-18T02:28:18;38.05;;;11.70;;
66521;SDS011;53349;53.538;8.584;2022-12-18T02:30:47;39.60;;;13.13;;
66521;SDS011;53349;53.538;8.584;2022-12-18T02:33:16;43.47;;;12.50;;
66521;SDS011;53349;53.538;8.584;2022-12-18T02:35:44;55.13;;;16.27;;
66521;SDS011;53349;53.538;8.584;2022-12-18T02:38:11;35.55;;;12.40;;
66521;SDS011;53349;53.538;8.584;2022-12-18T02:40:38;38.75;;;12.98;;
66521;SDS011;53349;53.538;8.584;2022-12-18T02:43:14;32.67;;;11.27;;
66521;SDS011;53349;53.538;8.584;2022-12-18T02:45:51;34.78;;;11.45;;
66521;SDS011;53349;53.538;8.584;2022-12-18T02:48:23;38.75;;;11.27;;
66521;SDS011;53349;53.538;8.584;2022-12-18T02:53:53;32.63;;;11.95;;
66521;SDS011;53349;53.538;8.584;2022-12-18T02:56:29;32.43;;;10.57;;
66521;SDS011;53349;53.538;8.584;2022-12-18T02:59:05;31.58;;;9.95;;
66521;SDS011;53349;53.538;8.584;2022-12-18T03:04:14;36.35;;;12.25;;
66521;SDS011;53349;53.538;8.584;2022-12-18T03:06:47;34.20;;;12.07;;
66521;SDS011;53349;53.538;8.584;2022-12-18T03:09:18;40.80;;;13.17;;
66521;SDS011;53349;53.538;8.584;2022-12-18T03:11:48;36.45;;;10.68;;
66521;SDS011;53349;53.538;8.584;2022-12-18T03:14:40;34.45;;;12.05;;
66521;SDS011;53349;53.538;8.584;2022-12-18T03:17:09;37.72;;;12.05;;
66521;SDS011;53349;53.538;8.584;2022-12-18T03:19:39;34.40;;;11.27;;
66521;SDS011;53349;53.538;8.584;2022-12-18T03:22:08;34.17;;;11.33;;
66521;SDS011;53349;53.538;8.584;2022-12-18T03:24:35;32.55;;;11.07;;
66521;SDS011;53349;53.538;8.584;2022-12-18T03:27:04;40.08;;;11.55;;
66521;SDS011;53349;53.538;8.584;2022-12-18T03:29:35;25.35;;;10.55;;
66521;SDS011;53349;53.538;8.584;2022-12-18T03:32:06;29.65;;;11.02;;
66521;SDS011;53349;53.538;8.584;2022-12-18T03:34:35;34.73;;;11.83;;
66521;SDS011;53349;53.538;8.584;2022-12-18T03:37:05;34.88;;;11.13;;
66521;SDS011;53349;53.538;8.584;2022-12-18T03:39:31;26.00;;;10.48;;
66521;SDS011;53349;53.538;8.584;2022-12-18T03:42:58;36.78;;;11.68;;
66521;SDS011;53349;53.538;8.584;2022-12-18T03:45:01;27.70;;;10.55;;
66521;SDS011;53349;53.538;8.584;2022-12-18T03:55:52;30.07;;;10.17;;
66521;SDS011;53349;53.538;8.584;2022-12-18T03:58:20;23.13;;;8.95;;
66521;SDS011;53349;53.538;8.584;2022-12-18T04:00:50;32.08;;;10.30;;
66521;SDS011;53349;53.538;8.584;2022-12-18T04:03:18;28.83;;;10.43;;
66521;SDS011;53349;53.538;8.584;2022-12-18T04:05:46;29.48;;;11.63;;
66521;SDS011;53349;53.538;8.584;2022-12-18T04:08:16;23.80;;;10.17;;
66521;SDS011;53349;53.538;8.584;2022-12-18T04:10:42;30.17;;;10.18;;
66521;SDS011;53349;53.538;8.584;2022-12-18T04:13:08;31.42;;;9.77;;
66521;SDS011;53349;53.538;8.584;2022-12-18T04:15:34;26.13;;;9.40;;
66521;SDS011;53349;53.538;8.584;2022-12-18T04:18:02;24.20;;;9.38;;
66521;SDS011;53349;53.538;8.584;2022-12-18T04:20:29;27.88;;;10.32;;
66521;SDS011;53349;53.538;8.584;2022-12-18T04:22:55;26.60;;;10.13;;
66521;SDS011;53349;53.538;8.584;2022-12-18T04:25:20;25.15;;;8.85;;
66521;SDS011;53349;53.538;8.584;2022-12-18T04:27:45;25.90;;;9.97;;
66521;SDS011;53349;53.538;8.584;2022-12-18T04:30:11;32.77;;;10.43;;
66521;SDS011;53349;53.538;8.584;2022-12-18T04:32:37;23.17;;;9.55;;
66521;SDS011;53349;53.538;8.584;2022-12-18T04:35:02;30.20;;;10.13;;
66521;SDS011;53349;53.538;8.584;2022-12-18T04:37:29;26.23;;;10.20;;
66521;SDS011;53349;53.538;8.584;2022-12-18T04:39:55;34.40;;;9.77;;
66521;SDS011;53349;53.538;8.584;2022-12-18T04:42:20;28.02;;;9.00;;
66521;SDS011;53349;53.538;8.584;2022-12-18T04:44:46;30.63;;;10.63;;
66521;SDS011;53349;53.538;8.584;2022-12-18T04:47:11;29.57;;;9.70;;
66521;SDS011;53349;53.538;8.584;2022-12-18T04:49:37;24.33;;;9.77;;
66521;SDS011;53349;53.538;8.584;2022-12-18T04:52:02;22.20;;;8.53;;
66521;SDS011;53349;53.538;8.584;2022-12-18T04:54:27;26.67;;;10.13;;
66521;SDS011;53349;53.538;8.584;2022-12-18T04:56:53;25.40;;;9.10;;
66521;SDS011;53349;53.538;8.584;2022-12-18T04:59:18;21.13;;;8.57;;
66521;SDS011;53349;53.538;8.584;2022-12-18T05:01:44;23.37;;;9.63;;
66521;SDS011;53349;53.538;8.584;2022-12-18T05:04:10;22.20;;;8.20;;
66521;SDS011;53349;53.538;8.584;2022-12-18T05:06:36;24.27;;;9.87;;
66521;SDS011;53349;53.538;8.584;2022-12-18T05:09:01;23.60;;;8.60;;
66521;SDS011;53349;53.538;8.584;2022-12-18T05:11:27;27.97;;;8.63;;
66521;SDS011;53349;53.538;8.584;2022-12-18T05:13:52;24.10;;;9.27;;
66521;SDS011;53349;53.538;8.584;2022-12-18T05:16:17;28.73;;;10.17;;
66521;SDS011;53349;53.538;8.584;2022-12-18T05:18:43;25.90;;;9.73;;
66521;SDS011;53349;53.538;8.584;2022-12-18T05:21:08;24.30;;;9.53;;
66521;SDS011;53349;53.538;8.584;2022-12-18T05:23:34;23.05;;;9.27;;
66521;SDS011;53349;53.538;8.584;2022-12-18T05:26:01;30.60;;;9.45;;
66521;SDS011;53349;53.538;8.584;2022-12-18T05:28:29;21.65;;;8.82;;
66521;SDS011;53349;53.538;8.584;2022-12-18T05:30:59;23.60;;;8.40;;
66521;SDS011;53349;53.538;8.584;2022-12-18T05:33:29;24.60;;;8.17;;
66521;SDS011;53349;53.538;8.584;2022-12-18T05:35:58;17.65;;;7.15;;
66521;SDS011;53349;53.538;8.584;2022-12-18T05:38:29;26.05;;;9.40;;
66521;SDS011;53349;53.538;8.584;2022-12-18T05:40:55;24.35;;;8.63;;
66521;SDS011;53349;53.538;8.584;2022-12-18T05:43:22;24.45;;;8.43;;
66521;SDS011;53349;53.538;8.584;2022-12-18T05:45:49;21.03;;;8.77;;
66521;SDS011;53349;53.538;8.584;2022-12-18T05:48:16;20.77;;;8.98;;
66521;SDS011;53349;53.538;8.584;2022-12-18T05:50:42;23.70;;;8.88;;
66521;SDS011;53349;53.538;8.584;2022-12-18T05:53:13;23.90;;;9.02;;
66521;SDS011;53349;53.538;8.584;2022-12-18T05:55:40;21.20;;;8.52;;
66521;SDS011;53349;53.538;8.584;2022-12-18T05:58:07;20.63;;;7.93;;
66521;SDS011;53349;53.538;8.584;2022-12-18T06:00:34;24.55;;;9.38;;
66521;SDS011;53349;53.538;8.584;2022-12-18T06:03:01;28.13;;;8.90;;
66521;SDS011;53349;53.538;8.584;2022-12-18T06:05:27;23.73;;;9.75;;
66521;SDS011;53349;53.538;8.584;2022-12-18T06:07:52;25.97;;;9.10;;
66521;SDS011;53349;53.538;8.584;2022-12-18T06:10:19;20.50;;;8.98;;
66521;SDS011;53349;53.538;8.584;2022-12-18T06:12:45;18.80;;;8.60;;
66521;SDS011;53349;53.538;8.584;2022-12-18T06:15:10;19.70;;;8.55;;
66521;SDS011;53349;53.538;8.584;2022-12-18T06:17:36;20.57;;;8.00;;
66521;SDS011;53349;53.538;8.584;2022-12-18T06:20:02;19.52;;;8.43;;
66521;SDS011;53349;53.538;8.584;2022-12-18T06:22:33;19.95;;;7.93;;
66521;SDS011;53349;53.538;8.584;2022-12-18T06:24:58;20.00;;;7.90;;
66521;SDS011;53349;53.538;8.584;2022-12-18T06:27:24;20.15;;;7.50;;
66521;SDS011;53349;53.538;8.584;2022-12-18T06:29:50;18.23;;;7.80;;
66521;SDS011;53349;53.538;8.584;2022-12-18T06:32:15;23.95;;;8.38;;
66521;SDS011;53349;53.538;8.584;2022-12-18T06:34:41;21.17;;;7.50;;
66521;SDS011;53349;53.538;8.584;2022-12-18T06:37:06;19.60;;;7.97;;
66521;SDS011;53349;53.538;8.584;2022-12-18T06:39:31;20.83;;;7.80;;
66521;SDS011;53349;53.538;8.584;2022-12-18T06:41:57;19.35;;;7.57;;
66521;SDS011;53349;53.538;8.584;2022-12-18T06:44:22;19.43;;;8.23;;
66521;SDS011;53349;53.538;8.584;2022-12-18T06:46:48;22.30;;;8.47;;
66521;SDS011;53349;53.538;8.584;2022-12-18T06:49:13;22.37;;;8.00;;
66521;SDS011;53349;53.538;8.584;2022-12-18T06:51:39;19.13;;;8.00;;
66521;SDS011;53349;53.538;8.584;2022-12-18T06:54:04;18.27;;;7.30;;
66521;SDS011;53349;53.538;8.584;2022-12-18T06:56:30;18.80;;;7.40;;
66521;SDS011;53349;53.538;8.584;2022-12-18T06:58:56;18.48;;;6.70;;
66521;SDS011;53349;53.538;8.584;2022-12-18T07:01:21;20.63;;;7.57;;
66521;SDS011;53349;53.538;8.584;2022-12-18T07:03:47;18.20;;;7.97;;
66521;SDS011;53349;53.538;8.584;2022-12-18T07:06:18;19.88;;;7.88;;
66521;SDS011;53349;53.538;8.584;2022-12-18T07:08:45;21.25;;;7.40;;
66521;SDS011;53349;53.538;8.584;2022-12-18T07:11:11;23.27;;;7.55;;
66521;SDS011;53349;53.538;8.584;2022-12-18T07:13:37;22.50;;;7.25;;
66521;SDS011;53349;53.538;8.584;2022-12-18T07:16:04;16.53;;;6.90;;
66521;SDS011;53349;53.538;8.584;2022-12-18T07:18:40;18.48;;;7.03;;
66521;SDS011;53349;53.538;8.584;2022-12-18T07:21:06;18.73;;;7.57;;
66521;SDS011;53349;53.538;8.584;2022-12-18T07:23:34;17.75;;;7.53;;
66521;SDS011;53349;53.538;8.584;2022-12-18T07:26:03;15.67;;;7.23;;
66521;SDS011;53349;53.538;8.584;2022-12-18T07:28:32;15.63;;;6.93;;
66521;SDS011;53349;53.538;8.584;2022-12-18T07:31:02;18.38;;;7.82;;
66521;SDS011;53349;53.538;8.584;2022-12-18T07:33:28;16.17;;;7.43;;
66521;SDS011;53349;53.538;8.584;2022-12-18T07:35:54;19.80;;;7.57;;
66521;SDS011;53349;53.538;8.584;2022-12-18T07:38:19;15.00;;;6.40;;
66521;SDS011;53349;53.538;8.584;2022-12-18T07:40:45;16.55;;;6.75;;
66521;SDS011;53349;53.538;8.584;2022-12-18T07:43:10;18.93;;;6.93;;
66521;SDS011;53349;53.538;8.584;2022-12-18T07:45:35;14.57;;;6.50;;
66521;SDS011;53349;53.538;8.584;2022-12-18T07:48:01;16.93;;;6.83;;
66521;SDS011;53349;53.538;8.584;2022-12-18T07:50:26;19.80;;;7.22;;
66521;SDS011;53349;53.538;8.584;2022-12-18T07:52:52;16.83;;;7.07;;
66521;SDS011;53349;53.538;8.584;2022-12-18T07:55:17;22.07;;;6.83;;
66521;SDS011;53349;53.538;8.584;2022-12-18T07:57:43;14.97;;;7.23;;
66521;SDS011;53349;53.538;8.584;2022-12-18T08:00:08;16.77;;;6.47;;
66521;SDS011;53349;53.538;8.584;2022-12-18T08:02:34;13.57;;;6.32;;
66521;SDS011;53349;53.538;8.584;2022-12-18T08:05:00;13.47;;;5.83;;
66521;SDS011;53349;53.538;8.584;2022-12-18T08:07:25;14.52;;;5.97;;
66521;SDS011;53349;53.538;8.584;2022-12-18T08:09:51;18.53;;;6.33;;
66521;SDS011;53349;53.538;8.584;2022-12-18T08:12:16;14.97;;;5.83;;
66521;SDS011;53349;53.538;8.584;2022-12-18T08:14:42;16.63;;;6.50;;
66521;SDS011;53349;53.538;8.584;2022-12-18T08:17:07;15.93;;;5.85;;
66521;SDS011;53349;53.538;8.584;2022-12-18T08:19:33;16.40;;;6.13;;
66521;SDS011;53349;53.538;8.584;2022-12-18T08:21:58;13.57;;;5.77;;
66521;SDS011;53349;53.538;8.584;2022-12-18T08:24:23;13.07;;;4.93;;
66521;SDS011;53349;53.538;8.584;2022-12-18T08:26:49;14.87;;;5.20;;
66521;SDS011;53349;53.538;8.584;2022-12-18T08:29:15;14.68;;;6.10;;
66521;SDS011;53349;53.538;8.584;2022-12-18T08:31:41;11.98;;;5.43;;
66521;SDS011;53349;53.538;8.584;2022-12-18T08:34:07;16.08;;;5.95;;
66521;SDS011;53349;53.538;8.584;2022-12-18T08:36:33;13.03;;;5.43;;
66521;SDS011;53349;53.538;8.584;2022-12-18T08:38:58;12.75;;;5.22;;
66521;SDS011;53349;53.538;8.584;2022-12-18T08:41:24;17.73;;;5.97;;
66521;SDS011;53349;53.538;8.584;2022-12-18T08:43:49;16.80;;;6.17;;
66521;SDS011;53349;53.538;8.584;2022-12-18T08:46:34;12.57;;;5.07;;
66521;SDS011;53349;53.538;8.584;2022-12-18T08:49:02;14.40;;;4.53;;
66521;SDS011;53349;53.538;8.584;2022-12-18T08:51:28;13.05;;;4.85;;
66521;SDS011;53349;53.538;8.584;2022-12-18T08:53:54;13.33;;;5.50;;
66521;SDS011;53349;53.538;8.584;2022-12-18T08:56:19;13.67;;;5.40;;
66521;SDS011;53349;53.538;8.584;2022-12-18T08:58:46;19.08;;;6.22;;
66521;SDS011;53349;53.538;8.584;2022-12-18T09:01:12;14.63;;;5.33;;
66521;SDS011;53349;53.538;8.584;2022-12-18T09:03:39;18.00;;;5.30;;
66521;SDS011;53349;53.538;8.584;2022-12-18T09:06:05;11.77;;;5.10;;
66521;SDS011;53349;53.538;8.584;2022-12-18T09:08:33;17.53;;;6.40;;
66521;SDS011;53349;53.538;8.584;2022-12-18T09:10:59;12.07;;;4.68;;
66521;SDS011;53349;53.538;8.584;2022-12-18T09:13:24;15.30;;;5.93;;
66521;SDS011;53349;53.538;8.584;2022-12-18T09:15:51;14.30;;;5.57;;
66521;SDS011;53349;53.538;8.584;2022-12-18T09:18:18;12.50;;;4.77;;
66521;SDS011;53349;53.538;8.584;2022-12-18T09:20:45;17.85;;;5.75;;
66521;SDS011;53349;53.538;8.584;2022-12-18T09:23:11;16.35;;;6.20;;
66521;SDS011;53349;53.538;8.584;2022-12-18T09:25:37;12.25;;;5.30;;
66521;SDS011;53349;53.538;8.584;2022-12-18T09:28:14;15.13;;;5.30;;
66521;SDS011;53349;53.538;8.584;2022-12-18T09:30:42;12.87;;;5.73;;
66521;SDS011;53349;53.538;8.584;2022-12-18T09:33:12;14.77;;;5.38;;
66521;SDS011;53349;53.538;8.584;2022-12-18T09:35:39;17.88;;;6.05;;
66521;SDS011;53349;53.538;8.584;2022-12-18T09:38:05;18.88;;;6.40;;
66521;SDS011;53349;53.538;8.584;2022-12-18T09:40:36;13.32;;;5.15;;
66521;SDS011;53349;53.538;8.584;2022-12-18T09:43:06;19.33;;;5.87;;
66521;SDS011;53349;53.538;8.584;2022-12-18T09:45:44;16.20;;;6.13;;
66521;SDS011;53349;53.538;8.584;2022-12-18T09:51:17;16.67;;;5.45;;
66521;SDS011;53349;53.538;8.584;2022-12-18T09:53:47;16.80;;;5.43;;
66521;SDS011;53349;53.538;8.584;2022-12-18T09:56:19;15.27;;;5.83;;
66521;SDS011;53349;53.538;8.584;2022-12-18T09:59:23;16.20;;;6.25;;
66521;SDS011;53349;53.538;8.584;2022-12-18T10:01:48;13.82;;;5.80;;
66521;SDS011;53349;53.538;8.584;2022-12-18T10:04:15;15.02;;;6.25;;
66521;SDS011;53349;53.538;8.584;2022-12-18T10:09:46;17.02;;;6.10;;
66521;SDS011;53349;53.538;8.584;2022-12-18T10:12:31;17.13;;;6.10;;
66521;SDS011;53349;53.538;8.584;2022-12-18T10:15:06;17.25;;;6.40;;
66521;SDS011;53349;53.538;8.584;2022-12-18T10:18:04;13.77;;;6.13;;
66521;SDS011;53349;53.538;8.584;2022-12-18T10:20:50;17.90;;;5.93;;
66521;SDS011;53349;53.538;8.584;2022-12-18T10:26:05;18.73;;;6.38;;
66521;SDS011;53349;53.538;8.584;2022-12-18T10:28:34;14.70;;;5.35;;
66521;SDS011;53349;53.538;8.584;2022-12-18T10:31:05;19.17;;;6.25;;
66521;SDS011;53349;53.538;8.584;2022-12-18T10:33:32;15.27;;;5.77;;
66521;SDS011;53349;53.538;8.584;2022-12-18T10:35:59;14.23;;;5.90;;
66521;SDS011;53349;53.538;8.584;2022-12-18T10:38:28;17.88;;;6.22;;
66521;SDS011;53349;53.538;8.584;2022-12-18T10:44:11;15.88;;;5.53;;
66521;SDS011;53349;53.538;8.584;2022-12-18T10:46:55;14.63;;;6.10;;
66521;SDS011;53349;53.538;8.584;2022-12-18T10:49:29;15.55;;;5.38;;
66521;SDS011;53349;53.538;8.584;2022-12-18T10:52:19;16.83;;;6.18;;
66521;SDS011;53349;53.538;8.584;2022-12-18T10:54:51;14.02;;;5.63;;
66521;SDS011;53349;53.538;8.584;2022-12-18T10:57:43;14.88;;;6.10;;
66521;SDS011;53349;53.538;8.584;2022-12-18T11:02:48;15.50;;;6.05;;
66521;SDS011;53349;53.538;8.584;2022-12-18T11:05:23;16.10;;;5.53;;
66521;SDS011;53349;53.538;8.584;2022-12-18T11:07:51;18.25;;;5.88;;
66521;SDS011;53349;53.538;8.584;2022-12-18T11:10:23;13.83;;;5.63;;
66521;SDS011;53349;53.538;8.584;2022-12-18T11:12:53;13.82;;;5.80;;
66521;SDS011;53349;53.538;8.584;2022-12-18T11:15:25;15.20;;;6.18;;
66521;SDS011;53349;53.538;8.584;2022-12-18T11:17:54;12.80;;;5.77;;
66521;SDS011;53349;53.538;8.584;2022-12-18T11:20:34;16.38;;;6.28;;
66521;SDS011;53349;53.538;8.584;2022-12-18T11:23:10;14.65;;;5.95;;
66521;SDS011;53349;53.538;8.584;2022-12-18T11:25:38;14.88;;;6.20;;
66521;SDS011;53349;53.538;8.584;2022-12-18T11:28:50;14.77;;;5.70;;
66521;SDS011;53349;53.538;8.584;2022-12-18T11:34:02;13.50;;;5.20;;
66521;SDS011;53349;53.538;8.584;2022-12-18T11:36:39;12.82;;;5.68;;
66521;SDS011;53349;53.538;8.584;2022-12-18T11:41:47;14.45;;;6.03;;
66521;SDS011;53349;53.538;8.584;2022-12-18T11:44:50;11.93;;;5.45;;
66521;SDS011;53349;53.538;8.584;2022-12-18T11:47:22;12.60;;;5.35;;
66521;SDS011;53349;53.538;8.584;2022-12-18T11:50:03;13.32;;;5.68;;
66521;SDS011;53349;53.538;8.584;2022-12-18T11:52:38;14.37;;;5.60;;
66521;SDS011;53349;53.538;8.584;2022-12-18T11:55:12;15.27;;;5.90;;
66521;SDS011;53349;53.538;8.584;2022-12-18T12:00:15;13.70;;;5.47;;
66521;SDS011;53349;53.538;8.584;2022-12-18T12:02:53;16.30;;;5.65;;
66521;SDS011;53349;53.538;8.584;2022-12-18T12:05:42;12.67;;;4.97;;
66521;SDS011;53349;53.538;8.584;2022-12-18T12:08:38;13.73;;;5.53;;
66521;SDS011;53349;53.538;8.584;2022-12-18T12:14:28;12.52;;;5.18;;
66521;SDS011;53349;53.538;8.584;2022-12-18T12:17:13;11.30;;;4.80;;
66521;SDS011;53349;53.538;8.584;2022-12-18T12:20:21;13.40;;;5.37;;
66521;SDS011;53349;53.538;8.584;2022-12-18T12:28:26;17.15;;;5.68;;
66521;SDS011;53349;53.538;8.584;2022-12-18T12:34:02;11.63;;;4.97;;
66521;SDS011;53349;53.538;8.584;2022-12-18T12:39:38;14.02;;;5.20;;
66521;SDS011;53349;53.538;8.584;2022-12-18T12:42:50;11.73;;;4.78;;
66521;SDS011;53349;53.538;8.584;2022-12-18T12:45:28;11.63;;;4.35;;
66521;SDS011;53349;53.538;8.584;2022-12-18T12:48:02;13.53;;;4.67;;
66521;SDS011;53349;53.538;8.584;2022-12-18T12:50:30;11.93;;;4.65;;
66521;SDS011;53349;53.538;8.584;2022-12-18T12:52:59;12.32;;;4.75;;
66521;SDS011;53349;53.538;8.584;2022-12-18T12:55:34;11.57;;;5.22;;
66521;SDS011;53349;53.538;8.584;2022-12-18T13:00:39;12.63;;;5.05;;
66521;SDS011;53349;53.538;8.584;2022-12-18T13:03:54;10.27;;;4.38;;
66521;SDS011;53349;53.538;8.584;2022-12-18T13:06:50;11.18;;;4.78;;
66521;SDS011;53349;53.538;8.584;2022-12-18T13:09:01;10.03;;;3.80;;
66521;SDS011;53349;53.538;8.584;2022-12-18T13:11:49;12.43;;;4.20;;
66521;SDS011;53349;53.538;8.584;2022-12-18T13:14:33;23.52;;;8.65;;
66521;SDS011;53349;53.538;8.584;2022-12-18T13:20:02;10.50;;;4.40;;
66521;SDS011;53349;53.538;8.584;2022-12-18T13:25:01;9.38;;;4.30;;
66521;SDS011;53349;53.538;8.584;2022-12-18T13:35:40;11.27;;;4.37;;
66521;SDS011;53349;53.538;8.584;2022-12-18T13:38:23;11.38;;;4.60;;
66521;SDS011;53349;53.538;8.584;2022-12-18T13:43:23;10.03;;;4.50;;
66521;SDS011;53349;53.538;8.584;2022-12-18T13:46:01;12.07;;;4.50;;
66521;SDS011;53349;53.538;8.584;2022-12-18T13:48:32;11.70;;;4.70;;
66521;SDS011;53349;53.538;8.584;2022-12-18T13:51:08;13.00;;;4.40;;
66521;SDS011;53349;53.538;8.584;2022-12-18T13:53:38;10.07;;;3.90;;
66521;SDS011;53349;53.538;8.584;2022-12-18T13:56:26;9.70;;;3.72;;
66521;SDS011;53349;53.538;8.584;2022-12-18T14:01:47;11.80;;;4.15;;
66521;SDS011;53349;53.538;8.584;2022-12-18T14:04:32;10.35;;;3.90;;
66521;SDS011;53349;53.538;8.584;2022-12-18T14:09:31;10.27;;;4.00;;
66521;SDS011;53349;53.538;8.584;2022-12-18T14:12:02;10.35;;;4.57;;
66521;SDS011;53349;53.538;8.584;2022-12-18T14:14:49;9.45;;;3.25;;
66521;SDS011;53349;53.538;8.584;2022-12-18T14:17:17;11.18;;;3.97;;
66521;SDS011;53349;53.538;8.584;2022-12-18T14:19:49;10.70;;;4.13;;
66521;SDS011;53349;53.538;8.584;2022-12-18T14:22:18;9.68;;;4.57;;
66521;SDS011;53349;53.538;8.584;2022-12-18T14:24:46;12.82;;;4.43;;
66521;SDS011;53349;53.538;8.584;2022-12-18T14:27:29;10.68;;;4.50;;
66521;SDS011;53349;53.538;8.584;2022-12-18T14:29:54;10.47;;;4.37;;
66521;SDS011;53349;53.538;8.584;2022-12-18T14:32:20;9.80;;;4.47;;
66521;SDS011;53349;53.538;8.584;2022-12-18T14:34:50;13.65;;;4.28;;
66521;SDS011;53349;53.538;8.584;2022-12-18T14:37:18;10.23;;;4.00;;
66521;SDS011;53349;53.538;8.584;2022-12-18T14:39:57;10.48;;;3.88;;
66521;SDS011;53349;53.538;8.584;2022-12-18T14:42:25;10.57;;;4.10;;
66521;SDS011;53349;53.538;8.584;2022-12-18T14:45:39;12.45;;;4.15;;
66521;SDS011;53349;53.538;8.584;2022-12-18T14:47:58;17.70;;;7.30;;
66521;SDS011;53349;53.538;8.584;2022-12-18T14:50:24;18.17;;;6.87;;
66521;SDS011;53349;53.538;8.584;2022-12-18T14:52:49;9.25;;;4.00;;
66521;SDS011;53349;53.538;8.584;2022-12-18T14:55:16;10.00;;;4.10;;
66521;SDS011;53349;53.538;8.584;2022-12-18T14:57:43;12.60;;;3.85;;
66521;SDS011;53349;53.538;8.584;2022-12-18T15:00:16;11.43;;;3.67;;
66521;SDS011;53349;53.538;8.584;2022-12-18T15:02:45;11.75;;;4.40;;
66521;SDS011;53349;53.538;8.584;2022-12-18T15:05:25;8.18;;;3.67;;
66521;SDS011;53349;53.538;8.584;2022-12-18T15:07:56;12.50;;;3.97;;
66521;SDS011;53349;53.538;8.584;2022-12-18T15:10:24;9.30;;;3.90;;
66521;SDS011;53349;53.538;8.584;2022-12-18T15:20:41;13.17;;;4.20;;
66521;SDS011;53349;53.538;8.584;2022-12-18T15:23:47;11.23;;;4.00;;
66521;SDS011;53349;53.538;8.584;2022-12-18T15:26:16;12.05;;;4.25;;
66521;SDS011;53349;53.538;8.584;2022-12-18T15:28:47;10.38;;;4.47;;
66521;SDS011;53349;53.538;8.584;2022-12-18T15:33:42;8.73;;;3.93;;
66521;SDS011;53349;53.538;8.584;2022-12-18T15:36:13;9.93;;;3.47;;
66521;SDS011;53349;53.538;8.584;2022-12-18T15:38:41;11.80;;;3.97;;
66521;SDS011;53349;53.538;8.584;2022-12-18T15:41:12;11.75;;;3.88;;
66521;SDS011;53349;53.538;8.584;2022-12-18T15:43:39;10.45;;;3.53;;
66521;SDS011;53349;53.538;8.584;2022-12-18T15:46:12;8.77;;;3.30;;
66521;SDS011;53349;53.538;8.584;2022-12-18T15:48:43;9.85;;;3.47;;
66521;SDS011;53349;53.538;8.584;2022-12-18T15:53:58;8.02;;;2.85;;
66521;SDS011;53349;53.538;8.584;2022-12-18T15:56:24;10.23;;;3.38;;
66521;SDS011;53349;53.538;8.584;2022-12-18T15:59:09;9.30;;;3.50;;
66521;SDS011;53349;53.538;8.584;2022-12-18T16:01:37;9.98;;;3.50;;
66521;SDS011;53349;53.538;8.584;2022-12-18T16:04:02;9.48;;;3.72;;
66521;SDS011;53349;53.538;8.584;2022-12-18T16:06:27;9.10;;;3.05;;
66521;SDS011;53349;53.538;8.584;2022-12-18T16:08:54;9.65;;;3.20;;
66521;SDS011;53349;53.538;8.584;2022-12-18T16:11:21;5.60;;;2.63;;
66521;SDS011;53349;53.538;8.584;2022-12-18T16:17:01;7.47;;;2.77;;
66521;SDS011;53349;53.538;8.584;2022-12-18T16:19:28;7.38;;;2.80;;
66521;SDS011;53349;53.538;8.584;2022-12-18T16:21:55;6.85;;;2.30;;
66521;SDS011;53349;53.538;8.584;2022-12-18T16:24:22;7.32;;;2.72;;
66521;SDS011;53349;53.538;8.584;2022-12-18T16:26:50;10.57;;;2.75;;
66521;SDS011;53349;53.538;8.584;2022-12-18T16:29:17;12.13;;;4.07;;
66521;SDS011;53349;53.538;8.584;2022-12-18T16:31:43;8.65;;;2.80;;
66521;SDS011;53349;53.538;8.584;2022-12-18T16:34:13;6.80;;;2.83;;